createdAt,value
2023-04-15T00:01:19.381Z,100821.53
2023-04-15T00:06:23.290Z,100819.66
2023-04-15T00:11:27.866Z,100819.47
2023-04-15T00:16:31.191Z,100813.13
2023-04-15T00:21:34.724Z,100816.09
2023-04-15T00:26:39.392Z,100804.81
2023-04-15T00:31:43.415Z,100809.63
2023-04-15T00:36:46.584Z,100823.19
2023-04-15T00:41:51.441Z,100813.19
2023-04-15T00:46:55.484Z,100815.38
2023-04-15T00:51:58.713Z,100830.19
2023-04-15T00:57:03.597Z,100831.53
2023-04-15T01:02:07.325Z,100815.97
2023-04-15T01:07:10.420Z,100829.84
2023-04-15T01:12:16.623Z,100826.81
2023-04-15T01:17:19.913Z,100827.19
2023-04-15T01:22:23.812Z,100830.13
2023-04-15T01:27:28.475Z,100814.19
2023-04-15T01:32:32.007Z,100820.09
2023-04-15T01:37:35.610Z,100827.84
2023-04-15T01:42:40.040Z,100838.78
2023-04-15T01:47:43.747Z,100835.97
2023-04-15T01:52:46.983Z,100837.47
2023-04-15T01:57:52.447Z,100835.09
2023-04-15T02:02:56.936Z,100830.47
2023-04-15T02:08:01.805Z,100835.38
2023-04-15T02:13:06.954Z,100830.50
2023-04-15T02:18:10.277Z,100840.84
2023-04-15T02:23:13.351Z,100836.13
2023-04-15T02:28:17.714Z,100845.41
2023-04-15T02:33:22.938Z,100847.72
2023-04-15T02:38:25.968Z,100861.41
2023-04-15T02:43:30.574Z,100860.31
2023-04-15T02:48:33.795Z,100855.66
2023-04-15T02:53:36.858Z,100864.97
2023-04-15T02:58:41.398Z,100870.13
2023-04-15T03:03:44.483Z,100862.66
2023-04-15T03:08:47.686Z,100872.19
2023-04-15T03:13:52.528Z,100878.94
2023-04-15T03:19:05.326Z,100873.22
2023-04-15T03:24:10.174Z,100881.84
2023-04-15T03:29:14.841Z,100893.00
2023-04-15T03:34:18.100Z,100883.69
2023-04-15T03:39:21.050Z,100903.09
2023-04-15T03:44:25.519Z,100899.22
2023-04-15T03:49:28.469Z,100914.78
2023-04-15T03:54:31.656Z,100926.75
2023-04-15T03:59:36.116Z,100927.47
2023-04-15T04:04:39.207Z,100931.59
2023-04-15T04:09:42.360Z,100935.94
2023-04-15T04:14:47.070Z,100951.31
2023-04-15T04:19:49.984Z,100938.56
2023-04-15T04:24:53.273Z,100961.34
2023-04-15T04:29:57.641Z,100965.69
2023-04-15T04:35:00.616Z,100966.25
2023-04-15T04:40:03.744Z,100981.94
2023-04-15T04:45:09.048Z,100990.50
2023-04-15T04:50:12.112Z,100990.13
2023-04-15T04:55:15.295Z,101006.47
2023-04-15T05:00:20.411Z,101009.69
2023-04-15T05:05:23.628Z,101009.34
2023-04-15T05:10:26.767Z,101024.44
2023-04-15T05:15:31.169Z,101023.53
2023-04-15T05:20:34.341Z,101039.25
2023-04-15T05:25:37.423Z,101038.44
2023-04-15T05:30:42.837Z,101058.56
2023-04-15T05:35:45.820Z,101045.38
2023-04-15T05:40:49.468Z,101051.94
2023-04-15T05:45:54.048Z,101066.84
2023-04-15T05:50:57.127Z,101086.56
2023-04-15T05:56:00.206Z,101085.22
2023-04-15T06:01:04.754Z,101097.81
2023-04-15T06:06:07.817Z,101109.69
2023-04-15T06:11:10.902Z,101135.41
2023-04-15T06:16:15.250Z,101143.78
2023-04-15T06:21:18.587Z,101145.34
2023-04-15T06:26:22.028Z,101161.09
2023-04-15T06:31:26.865Z,101160.94
2023-04-15T06:36:29.951Z,101165.88
2023-04-15T06:41:33.042Z,101200.97
2023-04-15T06:46:37.366Z,101201.69
2023-04-15T06:51:40.965Z,101213.88
2023-04-15T06:56:44.556Z,101227.72
2023-04-15T07:01:48.930Z,101216.03
2023-04-15T07:06:52.078Z,101217.00
2023-04-15T07:11:55.107Z,101231.00
2023-04-15T07:16:59.563Z,101244.34
2023-04-15T07:22:02.725Z,101258.72
2023-04-15T07:27:05.759Z,101269.06
2023-04-15T07:32:10.569Z,101269.81
2023-04-15T07:37:13.955Z,101277.59
2023-04-15T07:42:17.520Z,101255.81
2023-04-15T07:47:22.205Z,101288.97
2023-04-15T07:52:25.268Z,101296.84
2023-04-15T07:57:28.492Z,101307.25
2023-04-15T08:02:33.081Z,101309.72
2023-04-15T08:07:38.028Z,101310.66
2023-04-15T08:12:41.552Z,101328.38
2023-04-15T08:17:46.006Z,101328.13
2023-04-15T08:22:52.052Z,101344.66
2023-04-15T08:27:57.160Z,101346.09
2023-04-15T08:33:02.123Z,101348.28
2023-04-15T08:38:05.288Z,101346.50
2023-04-15T08:43:10.644Z,101356.75
2023-04-15T08:48:17.249Z,101367.59
2023-04-15T08:53:20.745Z,101370.69
2023-04-15T08:58:24.685Z,101385.88
2023-04-15T09:03:29.815Z,101386.03
2023-04-15T09:08:32.918Z,101387.56
2023-04-15T09:13:36.063Z,101404.69
2023-04-15T09:18:41.102Z,101416.78
2023-04-15T09:23:57.211Z,101425.41
2023-04-15T09:29:05.978Z,101424.94
2023-04-15T09:34:10.464Z,101451.09
2023-04-15T09:39:13.902Z,101441.97
2023-04-15T09:44:27.381Z,101437.91
2023-04-15T09:49:33.089Z,101450.97
2023-04-15T09:54:37.855Z,101452.06
2023-04-15T09:59:41.476Z,101461.50
2023-04-15T10:04:48.012Z,101456.84
2023-04-15T10:09:52.025Z,101469.13
2023-04-15T10:15:00.661Z,101474.31
2023-04-15T10:20:07.309Z,101473.03
2023-04-15T10:25:12.109Z,101482.59
2023-04-15T10:30:15.864Z,101474.03
2023-04-15T10:35:22.412Z,101477.03
2023-04-15T10:40:28.401Z,101475.97
2023-04-15T10:45:35.685Z,101487.00
2023-04-15T10:50:40.624Z,101479.44
2023-04-15T10:55:43.867Z,101497.53
2023-04-15T11:00:52.755Z,101498.13
2023-04-15T11:05:58.197Z,101503.09
2023-04-15T11:11:03.645Z,101501.81
2023-04-15T11:16:07.502Z,101488.78
2023-04-15T11:21:12.928Z,101511.88
2023-04-15T11:26:16.410Z,101510.88
2023-04-15T11:31:21.068Z,101524.41
2023-04-15T11:36:28.422Z,101528.78
2023-04-15T11:41:31.768Z,101536.81
2023-04-15T11:46:35.016Z,101550.81
2023-04-15T11:51:39.419Z,101547.41
2023-04-15T11:56:42.934Z,101551.31
2023-04-15T12:01:47.641Z,101561.97
2023-04-15T12:06:52.240Z,101558.81
2023-04-15T12:12:02.214Z,101563.75
2023-04-15T12:17:07.711Z,101580.03
2023-04-15T12:22:14.179Z,101585.44
2023-04-15T12:27:18.334Z,101582.91
2023-04-15T12:32:22.958Z,101592.56
2023-04-15T12:37:27.651Z,101612.50
2023-04-15T12:42:33.624Z,101616.28
2023-04-15T12:47:37.283Z,101614.34
2023-04-15T12:52:41.803Z,101631.53
2023-04-15T12:57:45.178Z,101640.03
2023-04-15T13:02:48.893Z,101643.09
2023-04-15T13:07:53.593Z,101655.88
2023-04-15T13:12:56.951Z,101660.97
2023-04-15T13:17:59.977Z,101659.00
2023-04-15T13:23:04.799Z,101670.50
2023-04-15T13:28:08.208Z,101657.22
2023-04-15T13:33:11.388Z,101669.16
2023-04-15T13:38:16.176Z,101684.41
2023-04-15T13:43:19.461Z,101686.72
2023-04-15T13:48:22.565Z,101695.47
2023-04-15T13:53:33.861Z,101710.94
2023-04-15T13:58:42.797Z,101714.69
2023-04-15T14:03:53.638Z,101718.88
2023-04-15T14:08:58.177Z,101727.34
2023-04-15T14:14:01.262Z,101734.72
2023-04-15T14:19:04.733Z,101733.34
2023-04-15T14:24:09.886Z,101734.72
2023-04-15T14:29:13.126Z,101735.16
2023-04-15T14:34:16.196Z,101744.69
2023-04-15T14:39:20.987Z,101754.56
2023-04-15T14:44:24.216Z,101752.63
2023-04-15T14:49:27.423Z,101756.22
2023-04-15T14:54:31.964Z,101769.28
2023-04-15T14:59:35.009Z,101782.44
2023-04-15T15:04:38.278Z,101784.31
2023-04-15T15:09:42.873Z,101809.50
2023-04-15T15:14:45.972Z,101797.81
2023-04-15T15:19:52.152Z,101792.91
2023-04-15T15:24:59.158Z,101834.63
2023-04-15T15:30:02.440Z,101826.94
2023-04-15T15:35:06.182Z,101830.91
2023-04-15T15:40:15.696Z,101831.47
2023-04-15T15:45:19.543Z,101844.84
2023-04-15T15:50:22.626Z,101840.75
2023-04-15T15:55:27.442Z,101859.69
2023-04-15T16:00:30.880Z,101868.84
2023-04-15T16:05:33.983Z,101870.78
2023-04-15T16:10:39.354Z,101877.50
2023-04-15T16:15:42.484Z,101880.66
2023-04-15T16:20:48.559Z,101890.34
2023-04-15T16:25:52.917Z,101898.84
2023-04-15T16:30:56.299Z,101905.91
2023-04-15T16:35:59.522Z,101918.44
2023-04-15T16:41:04.514Z,101909.78
2023-04-15T16:46:08.011Z,101923.13
2023-04-15T16:51:11.119Z,101951.06
2023-04-15T16:56:16.108Z,101934.13
2023-04-15T17:01:21.541Z,101956.41
2023-04-15T17:06:24.737Z,101953.06
2023-04-15T17:11:30.178Z,101955.38
2023-04-15T17:16:33.302Z,101967.84
2023-04-15T17:21:36.928Z,101975.63
2023-04-15T17:26:41.717Z,101970.56
2023-04-15T17:31:44.841Z,101983.53
2023-04-15T17:36:51.291Z,101985.78
2023-04-15T17:41:55.788Z,101987.56
2023-04-15T17:46:59.205Z,101988.78
2023-04-15T17:52:02.482Z,101987.38
2023-04-15T17:57:13.521Z,102004.00
2023-04-15T18:02:16.876Z,101996.03
2023-04-15T18:07:20.183Z,102013.84
2023-04-15T18:12:24.516Z,102012.97
2023-04-15T18:17:28.974Z,102017.69
2023-04-15T18:22:32.367Z,102024.94
2023-04-15T18:27:40.270Z,102030.47
2023-04-15T18:32:43.401Z,102034.03
2023-04-15T18:37:46.615Z,102046.19
2023-04-15T18:42:53.316Z,102041.84
2023-04-15T18:47:56.456Z,102060.22
2023-04-15T18:52:59.540Z,102067.72
2023-04-15T18:58:07.569Z,102083.81
2023-04-15T19:03:12.498Z,102091.88
2023-04-15T19:08:16.077Z,102093.75
2023-04-15T19:13:22.684Z,102104.00
2023-04-15T19:18:26.225Z,102122.34
2023-04-15T19:23:29.282Z,102111.22
2023-04-15T19:28:33.732Z,102120.59
2023-04-15T19:33:37.122Z,102118.94
2023-04-15T19:38:40.395Z,102143.06
2023-04-15T19:43:45.009Z,102123.22
2023-04-15T19:48:48.357Z,102135.63
2023-04-15T19:53:53.959Z,102125.59
2023-04-15T19:59:00.103Z,102139.16
2023-04-15T20:04:04.220Z,102129.38
2023-04-15T20:09:10.388Z,102138.97
2023-04-15T20:14:15.669Z,102115.94
2023-04-15T20:19:18.650Z,102131.84
2023-04-15T20:24:24.293Z,102145.75
2023-04-15T20:29:28.875Z,102155.13
2023-04-15T20:34:32.037Z,102138.72
2023-04-15T20:39:35.783Z,102159.97
2023-04-15T20:44:40.782Z,102163.72
2023-04-15T20:49:44.246Z,102150.22
2023-04-15T20:54:47.412Z,102162.22
2023-04-15T20:59:51.918Z,102163.53
2023-04-15T21:04:54.913Z,102153.31
2023-04-15T21:09:58.073Z,102165.88
2023-04-15T21:15:02.852Z,102170.19
2023-04-15T21:20:07.119Z,102168.38
2023-04-15T21:25:11.164Z,102167.72
2023-04-15T21:30:15.813Z,102183.75
2023-04-15T21:35:18.956Z,102182.66
2023-04-15T21:40:22.127Z,102181.84
2023-04-15T21:45:27.111Z,102188.09
2023-04-15T21:50:30.127Z,102194.75
2023-04-15T21:55:33.278Z,102205.81
2023-04-15T22:00:39.717Z,102202.59
2023-04-15T22:05:46.004Z,102205.59
2023-04-15T22:10:49.398Z,102205.41
2023-04-15T22:15:53.901Z,102214.78
2023-04-15T22:20:57.377Z,102216.69
2023-04-15T22:26:00.781Z,102217.69
2023-04-15T22:31:05.463Z,102220.53
2023-04-15T22:36:08.763Z,102220.53
2023-04-15T22:41:11.770Z,102231.00
2023-04-15T22:46:16.800Z,102226.75
2023-04-15T22:51:22.693Z,102229.66
2023-04-15T22:56:26.006Z,102224.91
2023-04-15T23:01:32.134Z,102216.59
2023-04-15T23:06:35.309Z,102251.84
2023-04-15T23:11:38.590Z,102249.97
2023-04-15T23:16:43.233Z,102258.75
2023-04-15T23:21:46.538Z,102263.69
2023-04-15T23:26:53.074Z,102264.34
2023-04-15T23:31:58.005Z,102267.25
2023-04-15T23:37:01.338Z,102271.34
2023-04-15T23:42:04.759Z,102268.38
2023-04-15T23:47:09.174Z,102273.53
2023-04-15T23:52:12.198Z,102272.94
2023-04-15T23:57:14.985Z,102250.00
